sensor_id;sensor_type;location;lat;lon;timestamp;pressure;altitude;pressure_sealevel;temperature;humidity
32033;BME280;31720;52.638;9.216;2023-03-21T00:02:25;101358.84;;;7.88;100.00
32033;BME280;31720;52.638;9.216;2023-03-21T00:05:27;101353.69;;;7.86;100.00
32033;BME280;31720;52.638;9.216;2023-03-21T00:08:28;101352.81;;;7.86;100.00
32033;BME280;31720;52.638;9.216;2023-03-21T00:11:31;101356.31;;;7.85;100.00
32033;BME280;31720;52.638;9.216;2023-03-21T00:14:32;101342.38;;;7.84;100.00
32033;BME280;31720;52.638;9.216;2023-03-21T00:17:34;101348.63;;;7.80;100.00
32033;BME280;31720;52.638;9.216;2023-03-21T00:20:38;101343.66;;;7.73;100.00
32033;BME280;31720;52.638;9.216;2023-03-21T00:23:40;101344.31;;;7.79;100.00
32033;BME280;31720;52.638;9.216;2023-03-21T00:26:43;101336.38;;;7.81;100.00
32033;BME280;31720;52.638;9.216;2023-03-21T00:29:45;101340.03;;;7.77;100.00
32033;BME280;31720;52.638;9.216;2023-03-21T00:32:48;101333.84;;;7.79;100.00
32033;BME280;31720;52.638;9.216;2023-03-21T00:35:50;101336.38;;;7.81;100.00
32033;BME280;31720;52.638;9.216;2023-03-21T00:38:52;101328.44;;;7.84;100.00
32033;BME280;31720;52.638;9.216;2023-03-21T00:41:55;101331.91;;;7.84;100.00
32033;BME280;31720;52.638;9.216;2023-03-21T00:44:56;101319.75;;;7.83;100.00
32033;BME280;31720;52.638;9.216;2023-03-21T00:47:58;101324.91;;;7.85;100.00
32033;BME280;31720;52.638;9.216;2023-03-21T00:50:59;101322.06;;;7.93;100.00
32033;BME280;31720;52.638;9.216;2023-03-21T00:54:00;101324.75;;;7.91;100.00
32033;BME280;31720;52.638;9.216;2023-03-21T00:57:05;101315.91;;;7.94;100.00
32033;BME280;31720;52.638;9.216;2023-03-21T01:00:10;101311.44;;;7.97;100.00
32033;BME280;31720;52.638;9.216;2023-03-21T01:03:14;101305.59;;;7.89;100.00
32033;BME280;31720;52.638;9.216;2023-03-21T01:06:17;101303.81;;;7.91;100.00
32033;BME280;31720;52.638;9.216;2023-03-21T01:09:21;101303.59;;;7.97;100.00
32033;BME280;31720;52.638;9.216;2023-03-21T01:12:24;101298.56;;;7.91;100.00
32033;BME280;31720;52.638;9.216;2023-03-21T01:15:26;101301.06;;;7.94;100.00
32033;BME280;31720;52.638;9.216;2023-03-21T01:18:29;101290.75;;;7.89;100.00
32033;BME280;31720;52.638;9.216;2023-03-21T01:21:31;101296.59;;;7.98;100.00
32033;BME280;31720;52.638;9.216;2023-03-21T01:24:32;101285.28;;;7.97;100.00
32033;BME280;31720;52.638;9.216;2023-03-21T01:27:35;101291.56;;;7.92;100.00
32033;BME280;31720;52.638;9.216;2023-03-21T01:30:37;101287.94;;;7.96;100.00
32033;BME280;31720;52.638;9.216;2023-03-21T01:33:38;101293.91;;;7.99;100.00
32033;BME280;31720;52.638;9.216;2023-03-21T01:36:40;101283.56;;;7.96;100.00
32033;BME280;31720;52.638;9.216;2023-03-21T01:39:41;101287.09;;;7.95;100.00
32033;BME280;31720;52.638;9.216;2023-03-21T01:42:44;101284.50;;;7.94;100.00
32033;BME280;31720;52.638;9.216;2023-03-21T01:46:06;101284.34;;;7.98;100.00
32033;BME280;31720;52.638;9.216;2023-03-21T01:49:12;101285.34;;;7.96;100.00
32033;BME280;31720;52.638;9.216;2023-03-21T01:52:17;101283.59;;;7.95;100.00
32033;BME280;31720;52.638;9.216;2023-03-21T01:55:19;101283.50;;;7.98;100.00
32033;BME280;31720;52.638;9.216;2023-03-21T01:58:22;101277.34;;;7.99;100.00
32033;BME280;31720;52.638;9.216;2023-03-21T02:01:24;101283.56;;;7.96;100.00
32033;BME280;31720;52.638;9.216;2023-03-21T02:04:26;101280.88;;;7.98;100.00
32033;BME280;31720;52.638;9.216;2023-03-21T02:07:30;101279.09;;;8.00;100.00
32033;BME280;31720;52.638;9.216;2023-03-21T02:10:34;101270.94;;;8.09;100.00
32033;BME280;31720;52.638;9.216;2023-03-21T02:13:37;101269.25;;;8.06;100.00
32033;BME280;31720;52.638;9.216;2023-03-21T02:16:46;101264.00;;;8.06;100.00
32033;BME280;31720;52.638;9.216;2023-03-21T02:27:07;101251.78;;;8.07;100.00
32033;BME280;31720;52.638;9.216;2023-03-21T02:30:34;101248.22;;;8.09;100.00
32033;BME280;31720;52.638;9.216;2023-03-21T02:37:21;101242.75;;;8.16;100.00
32033;BME280;31720;52.638;9.216;2023-03-21T02:40:28;101238.44;;;8.14;100.00
32033;BME280;31720;52.638;9.216;2023-03-21T02:43:36;101238.28;;;8.19;100.00
32033;BME280;31720;52.638;9.216;2023-03-21T02:46:43;101241.84;;;8.17;100.00
32033;BME280;31720;52.638;9.216;2023-03-21T02:49:50;101243.72;;;8.13;100.00
32033;BME280;31720;52.638;9.216;2023-03-21T02:52:55;101239.28;;;8.15;100.00
32033;BME280;31720;52.638;9.216;2023-03-21T02:55:58;101237.59;;;8.14;100.00
32033;BME280;31720;52.638;9.216;2023-03-21T02:59:01;101239.22;;;8.17;100.00
32033;BME280;31720;52.638;9.216;2023-03-21T03:02:04;101242.50;;;8.23;100.00
32033;BME280;31720;52.638;9.216;2023-03-21T03:05:13;101238.34;;;8.18;100.00
32033;BME280;31720;52.638;9.216;2023-03-21T03:08:25;101237.50;;;8.16;100.00
32033;BME280;31720;52.638;9.216;2023-03-21T03:11:28;101238.34;;;8.18;100.00
32033;BME280;31720;52.638;9.216;2023-03-21T03:14:39;101231.34;;;8.18;100.00
32033;BME280;31720;52.638;9.216;2023-03-21T03:17:49;101233.09;;;8.18;100.00
32033;BME280;31720;52.638;9.216;2023-03-21T03:20:58;101234.63;;;8.23;100.00
32033;BME280;31720;52.638;9.216;2023-03-21T03:24:05;101232.94;;;8.22;100.00
32033;BME280;31720;52.638;9.216;2023-03-21T03:27:13;101230.50;;;8.16;100.00
32033;BME280;31720;52.638;9.216;2023-03-21T03:30:16;101226.94;;;8.19;100.00
32033;BME280;31720;52.638;9.216;2023-03-21T03:33:19;101216.47;;;8.19;100.00
32033;BME280;31720;52.638;9.216;2023-03-21T03:36:25;101220.03;;;8.16;100.00
32033;BME280;31720;52.638;9.216;2023-03-21T03:39:34;101222.63;;;8.18;100.00
32033;BME280;31720;52.638;9.216;2023-03-21T03:42:39;101225.34;;;8.14;100.00
32033;BME280;31720;52.638;9.216;2023-03-21T03:45:46;101223.50;;;8.17;100.00
32033;BME280;31720;52.638;9.216;2023-03-21T03:48:51;101220.22;;;8.11;100.00
32033;BME280;31720;52.638;9.216;2023-03-21T03:51:58;101223.41;;;8.20;100.00
32033;BME280;31720;52.638;9.216;2023-03-21T03:55:04;101213.16;;;8.13;100.00
32033;BME280;31720;52.638;9.216;2023-03-21T03:58:06;101216.66;;;8.12;100.00
32033;BME280;31720;52.638;9.216;2023-03-21T04:01:07;101218.56;;;8.09;100.00
32033;BME280;31720;52.638;9.216;2023-03-21T04:04:10;101214.94;;;8.13;100.00
32033;BME280;31720;52.638;9.216;2023-03-21T04:07:12;101213.03;;;8.17;100.00
32033;BME280;31720;52.638;9.216;2023-03-21T04:10:16;101219.13;;;8.17;100.00
32033;BME280;31720;52.638;9.216;2023-03-21T04:13:17;101212.09;;;8.19;100.00
32033;BME280;31720;52.638;9.216;2023-03-21T04:16:18;101217.44;;;8.16;100.00
32033;BME280;31720;52.638;9.216;2023-03-21T04:19:20;101210.50;;;8.15;100.00
32033;BME280;31720;52.638;9.216;2023-03-21T04:22:21;101220.97;;;8.15;100.00
32033;BME280;31720;52.638;9.216;2023-03-21T04:25:24;101213.09;;;8.15;100.00
32033;BME280;31720;52.638;9.216;2023-03-21T04:28:27;101207.09;;;8.13;100.00
32033;BME280;31720;52.638;9.216;2023-03-21T04:31:29;101214.03;;;8.14;100.00
32033;BME280;31720;52.638;9.216;2023-03-21T04:34:32;101202.69;;;8.13;100.00
32033;BME280;31720;52.638;9.216;2023-03-21T04:37:39;101208.72;;;8.16;100.00
32033;BME280;31720;52.638;9.216;2023-03-21T04:40:41;101195.69;;;8.14;100.00
32033;BME280;31720;52.638;9.216;2023-03-21T04:43:43;101206.09;;;8.16;100.00
32033;BME280;31720;52.638;9.216;2023-03-21T04:46:45;101209.63;;;8.14;100.00
32033;BME280;31720;52.638;9.216;2023-03-21T04:49:46;101194.88;;;8.12;100.00
32033;BME280;31720;52.638;9.216;2023-03-21T04:52:48;101200.97;;;8.12;100.00
32033;BME280;31720;52.638;9.216;2023-03-21T04:55:51;101198.31;;;8.14;100.00
32033;BME280;31720;52.638;9.216;2023-03-21T04:58:52;101198.19;;;8.17;100.00
32033;BME280;31720;52.638;9.216;2023-03-21T05:01:53;101201.69;;;8.18;100.00
32033;BME280;31720;52.638;9.216;2023-03-21T05:04:56;101192.00;;;8.20;100.00
32033;BME280;31720;52.638;9.216;2023-03-21T05:07:57;101193.75;;;8.19;100.00
32033;BME280;31720;52.638;9.216;2023-03-21T05:11:01;101186.66;;;8.23;100.00
32033;BME280;31720;52.638;9.216;2023-03-21T05:14:02;101189.28;;;8.23;100.00
32033;BME280;31720;52.638;9.216;2023-03-21T05:17:03;101191.06;;;8.21;100.00
32033;BME280;31720;52.638;9.216;2023-03-21T05:20:06;101184.94;;;8.22;100.00
32033;BME280;31720;52.638;9.216;2023-03-21T05:23:09;101185.75;;;8.24;100.00
32033;BME280;31720;52.638;9.216;2023-03-21T05:26:12;101185.91;;;8.19;100.00
32033;BME280;31720;52.638;9.216;2023-03-21T05:29:13;101185.81;;;8.22;100.00
32033;BME280;31720;52.638;9.216;2023-03-21T05:32:14;101180.59;;;8.21;100.00
32033;BME280;31720;52.638;9.216;2023-03-21T05:35:16;101184.03;;;8.23;100.00
32033;BME280;31720;52.638;9.216;2023-03-21T05:38:17;101187.38;;;8.26;100.00
32033;BME280;31720;52.638;9.216;2023-03-21T05:41:20;101184.66;;;8.29;100.00
32033;BME280;31720;52.638;9.216;2023-03-21T05:44:21;101180.25;;;8.30;100.00
32033;BME280;31720;52.638;9.216;2023-03-21T05:47:22;101182.88;;;8.30;100.00
32033;BME280;31720;52.638;9.216;2023-03-21T05:50:24;101183.69;;;8.32;100.00
32033;BME280;31720;52.638;9.216;2023-03-21T05:53:25;101176.69;;;8.32;100.00
32033;BME280;31720;52.638;9.216;2023-03-21T05:56:28;101178.31;;;8.35;100.00
32033;BME280;31720;52.638;9.216;2023-03-21T05:59:29;101184.41;;;8.35;100.00
32033;BME280;31720;52.638;9.216;2023-03-21T06:02:31;101187.03;;;8.37;100.00
32033;BME280;31720;52.638;9.216;2023-03-21T06:05:32;101179.94;;;8.41;100.00
32033;BME280;31720;52.638;9.216;2023-03-21T06:08:33;101189.47;;;8.42;100.00
32033;BME280;31720;52.638;9.216;2023-03-21T06:11:37;101194.72;;;8.42;100.00
32033;BME280;31720;52.638;9.216;2023-03-21T06:14:39;101183.38;;;8.41;100.00
32033;BME280;31720;52.638;9.216;2023-03-21T06:17:40;101191.28;;;8.39;100.00
32033;BME280;31720;52.638;9.216;2023-03-21T06:20:41;101181.66;;;8.40;100.00
32033;BME280;31720;52.638;9.216;2023-03-21T06:23:43;101192.09;;;8.42;100.00
32033;BME280;31720;52.638;9.216;2023-03-21T06:26:45;101192.84;;;8.45;100.00
32033;BME280;31720;52.638;9.216;2023-03-21T06:29:47;101189.31;;;8.46;100.00
32033;BME280;31720;52.638;9.216;2023-03-21T06:32:48;101190.09;;;8.48;100.00
32033;BME280;31720;52.638;9.216;2023-03-21T06:35:50;101186.56;;;8.49;100.00
32033;BME280;31720;52.638;9.216;2023-03-21T06:38:52;101190.84;;;8.52;100.00
32033;BME280;31720;52.638;9.216;2023-03-21T06:41:56;101189.16;;;8.49;100.00
32033;BME280;31720;52.638;9.216;2023-03-21T06:44:57;101190.00;;;8.51;100.00
32033;BME280;31720;52.638;9.216;2023-03-21T06:47:58;101196.75;;;8.57;100.00
32033;BME280;31720;52.638;9.216;2023-03-21T06:51:00;101195.63;;;8.64;100.00
32033;BME280;31720;52.638;9.216;2023-03-21T06:54:01;101198.28;;;8.62;100.00
32033;BME280;31720;52.638;9.216;2023-03-21T06:57:04;101199.19;;;8.61;100.00
32033;BME280;31720;52.638;9.216;2023-03-21T07:00:07;101206.09;;;8.64;100.00
32033;BME280;31720;52.638;9.216;2023-03-21T07:03:09;101202.63;;;8.63;100.00
32033;BME280;31720;52.638;9.216;2023-03-21T07:06:11;101208.72;;;8.64;100.00
32033;BME280;31720;52.638;9.216;2023-03-21T07:09:12;101204.50;;;8.60;100.00
32033;BME280;31720;52.638;9.216;2023-03-21T07:12:18;101199.94;;;8.65;100.00
32033;BME280;31720;52.638;9.216;2023-03-21T07:15:19;101191.00;;;8.71;100.00
32033;BME280;31720;52.638;9.216;2023-03-21T07:18:21;101195.47;;;8.67;100.00
32033;BME280;31720;52.638;9.216;2023-03-21T07:21:22;101191.97;;;8.68;100.00
32033;BME280;31720;52.638;9.216;2023-03-21T07:24:23;101190.88;;;8.74;100.00
32033;BME280;31720;52.638;9.216;2023-03-21T07:27:26;101193.31;;;8.78;100.00
32033;BME280;31720;52.638;9.216;2023-03-21T07:30:28;101182.75;;;8.80;100.00
32033;BME280;31720;52.638;9.216;2023-03-21T07:33:29;101187.78;;;8.86;100.00
32033;BME280;31720;52.638;9.216;2023-03-21T07:36:31;101183.31;;;8.88;100.00
32033;BME280;31720;52.638;9.216;2023-03-21T07:39:33;101187.44;;;8.95;100.00
32033;BME280;31720;52.638;9.216;2023-03-21T07:42:36;101175.84;;;9.01;100.00
32033;BME280;31720;52.638;9.216;2023-03-21T07:45:37;101178.50;;;8.99;100.00
32033;BME280;31720;52.638;9.216;2023-03-21T07:48:39;101173.22;;;9.01;100.00
32033;BME280;31720;52.638;9.216;2023-03-21T07:51:40;101184.06;;;9.13;100.00
32033;BME280;31720;52.638;9.216;2023-03-21T07:54:42;101184.13;;;9.12;100.00
32033;BME280;31720;52.638;9.216;2023-03-21T07:57:45;101185.59;;;9.19;100.00
32033;BME280;31720;52.638;9.216;2023-03-21T08:00:50;101182.66;;;9.27;100.00
32033;BME280;31720;52.638;9.216;2023-03-21T08:03:52;101180.94;;;9.26;100.00
32033;BME280;31720;52.638;9.216;2023-03-21T08:06:53;101185.28;;;9.27;100.00
32033;BME280;31720;52.638;9.216;2023-03-21T08:09:56;101186.19;;;9.26;100.00
32033;BME280;31720;52.638;9.216;2023-03-21T08:12:59;101189.66;;;9.26;100.00
32033;BME280;31720;52.638;9.216;2023-03-21T08:16:00;101186.78;;;9.32;100.00
32033;BME280;31720;52.638;9.216;2023-03-21T08:19:01;101189.41;;;9.32;100.00
32033;BME280;31720;52.638;9.216;2023-03-21T08:22:03;101182.28;;;9.36;100.00
32033;BME280;31720;52.638;9.216;2023-03-21T08:25:07;101186.22;;;9.46;100.00
32033;BME280;31720;52.638;9.216;2023-03-21T08:28:10;101186.88;;;9.51;100.00
32033;BME280;31720;52.638;9.216;2023-03-21T08:31:12;101182.16;;;9.59;100.00
32033;BME280;31720;52.638;9.216;2023-03-21T08:34:13;101181.13;;;9.63;100.00
32033;BME280;31720;52.638;9.216;2023-03-21T08:37:17;101183.94;;;9.59;100.00
32033;BME280;31720;52.638;9.216;2023-03-21T08:40:18;101177.69;;;9.61;100.00
32033;BME280;31720;52.638;9.216;2023-03-21T08:43:21;101177.66;;;9.63;100.00
32033;BME280;31720;52.638;9.216;2023-03-21T08:46:23;101173.66;;;9.54;100.00
32033;BME280;31720;52.638;9.216;2023-03-21T08:49:24;101178.91;;;9.54;100.00
32033;BME280;31720;52.638;9.216;2023-03-21T08:52:26;101178.03;;;9.74;100.00
32033;BME280;31720;52.638;9.216;2023-03-21T08:55:27;101178.09;;;9.73;100.00
32033;BME280;31720;52.638;9.216;2023-03-21T08:58:30;101181.22;;;9.81;100.00
32033;BME280;31720;52.638;9.216;2023-03-21T09:01:32;101176.13;;;9.78;100.00
32033;BME280;31720;52.638;9.216;2023-03-21T09:04:33;101176.78;;;9.83;100.00
32033;BME280;31720;52.638;9.216;2023-03-21T09:07:35;101172.50;;;9.80;100.00
32033;BME280;31720;52.638;9.216;2023-03-21T09:10:36;101174.44;;;9.77;100.00
32033;BME280;31720;52.638;9.216;2023-03-21T09:13:39;101169.00;;;9.81;100.00
32033;BME280;31720;52.638;9.216;2023-03-21T09:16:40;101172.31;;;9.85;100.00
32033;BME280;31720;52.638;9.216;2023-03-21T09:19:42;101173.03;;;9.88;100.00
32033;BME280;31720;52.638;9.216;2023-03-21T09:22:44;101167.66;;;9.91;100.00
32033;BME280;31720;52.638;9.216;2023-03-21T09:25:46;101170.41;;;9.88;100.00
32033;BME280;31720;52.638;9.216;2023-03-21T09:28:49;101177.72;;;9.82;100.00
32033;BME280;31720;52.638;9.216;2023-03-21T09:31:51;101184.00;;;9.78;100.00
32033;BME280;31720;52.638;9.216;2023-03-21T09:34:53;101170.41;;;9.88;100.00
32033;BME280;31720;52.638;9.216;2023-03-21T09:37:56;101169.47;;;9.89;100.00
32033;BME280;31720;52.638;9.216;2023-03-21T09:41:04;101169.16;;;9.97;100.00
32033;BME280;31720;52.638;9.216;2023-03-21T09:44:24;101174.59;;;9.93;100.00
32033;BME280;31720;52.638;9.216;2023-03-21T09:47:28;101178.41;;;9.85;100.00
32033;BME280;31720;52.638;9.216;2023-03-21T09:50:35;101172.66;;;9.77;100.00
32033;BME280;31720;52.638;9.216;2023-03-21T09:53:40;101175.94;;;9.82;100.00
32033;BME280;31720;52.638;9.216;2023-03-21T09:56:44;101172.91;;;9.71;100.00
32033;BME280;31720;52.638;9.216;2023-03-21T09:59:49;101166.59;;;9.75;100.00
32033;BME280;31720;52.638;9.216;2023-03-21T10:02:54;101166.41;;;9.80;100.00
32033;BME280;31720;52.638;9.216;2023-03-21T10:05:59;101169.03;;;9.80;100.00
32033;BME280;31720;52.638;9.216;2023-03-21T10:09:05;101168.09;;;9.81;100.00
32033;BME280;31720;52.638;9.216;2023-03-21T10:12:13;101169.00;;;9.81;100.00
32033;BME280;31720;52.638;9.216;2023-03-21T10:15:19;101169.56;;;9.88;100.00
32033;BME280;31720;52.638;9.216;2023-03-21T10:18:23;101163.25;;;9.92;100.00
32033;BME280;31720;52.638;9.216;2023-03-21T10:21:27;101171.47;;;9.84;100.00
32033;BME280;31720;52.638;9.216;2023-03-21T10:24:31;101163.47;;;9.87;100.00
32033;BME280;31720;52.638;9.216;2023-03-21T10:27:33;101163.38;;;9.89;100.00
32033;BME280;31720;52.638;9.216;2023-03-21T10:30:40;101162.34;;;9.93;100.00
32033;BME280;31720;52.638;9.216;2023-03-21T10:33:45;101159.72;;;9.93;100.00
32033;BME280;31720;52.638;9.216;2023-03-21T10:36:47;101158.09;;;9.90;100.00
32033;BME280;31720;52.638;9.216;2023-03-21T10:39:50;101160.97;;;9.84;100.00
32033;BME280;31720;52.638;9.216;2023-03-21T10:42:53;101154.13;;;9.80;100.00
32033;BME280;31720;52.638;9.216;2023-03-21T10:45:56;101152.50;;;9.78;100.00
32033;BME280;31720;52.638;9.216;2023-03-21T10:48:58;101152.72;;;9.73;100.00
32033;BME280;31720;52.638;9.216;2023-03-21T10:52:02;101149.38;;;9.70;100.00
32033;BME280;31720;52.638;9.216;2023-03-21T10:55:17;101143.72;;;9.79;100.00
32033;BME280;31720;52.638;9.216;2023-03-21T10:58:24;101154.28;;;9.77;100.00
32033;BME280;31720;52.638;9.216;2023-03-21T11:01:34;101143.78;;;9.77;100.00
32033;BME280;31720;52.638;9.216;2023-03-21T11:04:37;101143.84;;;9.76;100.00
32033;BME280;31720;52.638;9.216;2023-03-21T11:07:38;101141.41;;;9.71;100.00
32033;BME280;31720;52.638;9.216;2023-03-21T11:10:50;101138.59;;;9.76;100.00
32033;BME280;31720;52.638;9.216;2023-03-21T11:13:57;101144.75;;;9.75;100.00
32033;BME280;31720;52.638;9.216;2023-03-21T11:17:00;101138.59;;;9.76;100.00
32033;BME280;31720;52.638;9.216;2023-03-21T11:20:06;101136.75;;;9.78;100.00
32033;BME280;31720;52.638;9.216;2023-03-21T11:23:09;101135.56;;;9.85;100.00
32033;BME280;31720;52.638;9.216;2023-03-21T11:26:18;101132.59;;;9.93;100.00
32033;BME280;31720;52.638;9.216;2023-03-21T11:29:28;101133.31;;;9.96;100.00
32033;BME280;31720;52.638;9.216;2023-03-21T11:32:32;101129.69;;;9.99;100.00
32033;BME280;31720;52.638;9.216;2023-03-21T11:35:36;101134.06;;;10.00;100.00
32033;BME280;31720;52.638;9.216;2023-03-21T11:38:39;101125.13;;;10.04;100.00
32033;BME280;31720;52.638;9.216;2023-03-21T11:41:41;101131.22;;;10.04;100.00
32033;BME280;31720;52.638;9.216;2023-03-21T11:44:43;101126.81;;;10.05;100.00
32033;BME280;31720;52.638;9.216;2023-03-21T11:47:46;101115.50;;;10.03;100.00
32033;BME280;31720;52.638;9.216;2023-03-21T11:50:50;101118.72;;;10.09;100.00
32033;BME280;31720;52.638;9.216;2023-03-21T11:54:02;101117.88;;;10.09;100.00
32033;BME280;31720;52.638;9.216;2023-03-21T11:57:12;101109.72;;;10.15;100.00
32033;BME280;31720;52.638;9.216;2023-03-21T12:00:19;101112.00;;;10.23;100.00
32033;BME280;31720;52.638;9.216;2023-03-21T12:04:00;101108.44;;;10.24;100.00
32033;BME280;31720;52.638;9.216;2023-03-21T12:07:15;101104.25;;;10.20;100.00
32033;BME280;31720;52.638;9.216;2023-03-21T12:10:30;101095.59;;;10.18;100.00
32033;BME280;31720;52.638;9.216;2023-03-21T12:13:43;101099.34;;;10.12;100.00
32033;BME280;31720;52.638;9.216;2023-03-21T12:16:55;101088.84;;;10.12;100.00
32033;BME280;31720;52.638;9.216;2023-03-21T12:20:19;101089.47;;;10.17;100.00
32033;BME280;31720;52.638;9.216;2023-03-21T12:23:37;101088.19;;;10.27;100.00
32033;BME280;31720;52.638;9.216;2023-03-21T12:26:46;101080.97;;;10.31;100.00
32033;BME280;31720;52.638;9.216;2023-03-21T12:30:06;101073.06;;;10.32;100.00
32033;BME280;31720;52.638;9.216;2023-03-21T12:33:22;101073.53;;;10.40;100.00
32033;BME280;31720;52.638;9.216;2023-03-21T12:36:40;101070.13;;;10.38;100.00
32033;BME280;31720;52.638;9.216;2023-03-21T12:39:45;101064.66;;;10.43;100.00
32033;BME280;31720;52.638;9.216;2023-03-21T12:42:57;101059.16;;;10.48;100.00
32033;BME280;31720;52.638;9.216;2023-03-21T12:46:05;101058.31;;;10.47;100.00
32033;BME280;31720;52.638;9.216;2023-03-21T12:49:15;101051.38;;;10.46;100.00
32033;BME280;31720;52.638;9.216;2023-03-21T12:52:23;101054.00;;;10.46;100.00
32033;BME280;31720;52.638;9.216;2023-03-21T12:55:29;101054.84;;;10.47;100.00
32033;BME280;31720;52.638;9.216;2023-03-21T12:58:38;101043.50;;;10.46;100.00
32033;BME280;31720;52.638;9.216;2023-03-21T13:01:43;101040.94;;;10.45;100.00
32033;BME280;31720;52.638;9.216;2023-03-21T13:04:53;101040.56;;;10.52;100.00
32033;BME280;31720;52.638;9.216;2023-03-21T13:08:01;101047.28;;;10.40;100.00
32033;BME280;31720;52.638;9.216;2023-03-21T13:11:05;101033.44;;;10.37;100.00
32033;BME280;31720;52.638;9.216;2023-03-21T13:14:11;101028.09;;;10.38;100.00
32033;BME280;31720;52.638;9.216;2023-03-21T13:17:21;101028.66;;;10.45;100.00
32033;BME280;31720;52.638;9.216;2023-03-21T13:20:32;101025.19;;;10.45;100.00
32033;BME280;31720;52.638;9.216;2023-03-21T13:23:38;101023.53;;;10.42;100.00
32033;BME280;31720;52.638;9.216;2023-03-21T13:26:40;101023.31;;;10.47;100.00
32033;BME280;31720;52.638;9.216;2023-03-21T13:29:45;101021.97;;;10.38;100.00
32033;BME280;31720;52.638;9.216;2023-03-21T13:32:50;101017.44;;;10.41;100.00
32033;BME280;31720;52.638;9.216;2023-03-21T13:35:54;101010.84;;;10.33;100.00
32033;BME280;31720;52.638;9.216;2023-03-21T13:39:03;101017.16;;;10.29;100.00
32033;BME280;31720;52.638;9.216;2023-03-21T13:42:16;101014.94;;;10.38;100.00
32033;BME280;31720;52.638;9.216;2023-03-21T13:45:24;101009.84;;;10.35;100.00
32033;BME280;31720;52.638;9.216;2023-03-21T13:48:26;101017.72;;;10.35;100.00
32033;BME280;31720;52.638;9.216;2023-03-21T13:51:43;101010.06;;;10.31;100.00
32033;BME280;31720;52.638;9.216;2023-03-21T13:54:49;101002.88;;;10.34;100.00
32033;BME280;31720;52.638;9.216;2023-03-21T13:57:51;101000.22;;;10.36;100.00
32033;BME280;31720;52.638;9.216;2023-03-21T14:01:11;101011.63;;;10.35;100.00
32033;BME280;31720;52.638;9.216;2023-03-21T14:04:16;101008.09;;;10.36;100.00
32033;BME280;31720;52.638;9.216;2023-03-21T14:07:20;101002.97;;;10.33;100.00
32033;BME280;31720;52.638;9.216;2023-03-21T14:10:29;100993.44;;;10.30;100.00
32033;BME280;31720;52.638;9.216;2023-03-21T14:13:33;100990.81;;;10.30;100.00
32033;BME280;31720;52.638;9.216;2023-03-21T14:16:35;100992.38;;;10.34;100.00
32033;BME280;31720;52.638;9.216;2023-03-21T14:19:37;100977.53;;;10.33;100.00
32033;BME280;31720;52.638;9.216;2023-03-21T14:22:39;100970.28;;;10.38;100.00
32033;BME280;31720;52.638;9.216;2023-03-21T14:25:42;100962.50;;;10.37;100.00
32033;BME280;31720;52.638;9.216;2023-03-21T14:28:48;100958.22;;;10.34;100.00
32033;BME280;31720;52.638;9.216;2023-03-21T14:31:52;100950.34;;;10.34;100.00
32033;BME280;31720;52.638;9.216;2023-03-21T14:34:54;100956.41;;;10.36;100.00
32033;BME280;31720;52.638;9.216;2023-03-21T14:37:59;100957.69;;;10.28;100.00
32033;BME280;31720;52.638;9.216;2023-03-21T14:41:02;100950.28;;;10.36;100.00
32033;BME280;31720;52.638;9.216;2023-03-21T14:44:22;100940.25;;;10.27;100.00
32033;BME280;31720;52.638;9.216;2023-03-21T14:47:28;100934.75;;;10.31;100.00
32033;BME280;31720;52.638;9.216;2023-03-21T14:50:35;100934.75;;;10.31;100.00
32033;BME280;31720;52.638;9.216;2023-03-21T14:53:40;100929.09;;;10.39;100.00
32033;BME280;31720;52.638;9.216;2023-03-21T14:56:46;100925.25;;;10.46;100.00
32033;BME280;31720;52.638;9.216;2023-03-21T14:59:51;100925.63;;;10.38;100.00
32033;BME280;31720;52.638;9.216;2023-03-21T15:02:53;100929.19;;;10.37;100.00
32033;BME280;31720;52.638;9.216;2023-03-21T15:05:57;100929.94;;;10.39;100.00
32033;BME280;31720;52.638;9.216;2023-03-21T15:09:01;100925.41;;;10.43;100.00
32033;BME280;31720;52.638;9.216;2023-03-21T15:12:07;100917.59;;;10.41;100.00
32033;BME280;31720;52.638;9.216;2023-03-21T15:15:13;100916.66;;;10.43;100.00
32033;BME280;31720;52.638;9.216;2023-03-21T15:18:17;100901.47;;;10.49;100.00
32033;BME280;31720;52.638;9.216;2023-03-21T15:21:22;100900.53;;;10.50;100.00
32033;BME280;31720;52.638;9.216;2023-03-21T15:24:27;100895.75;;;10.58;100.00
32033;BME280;31720;52.638;9.216;2023-03-21T15:27:35;100895.03;;;10.55;100.00
32033;BME280;31720;52.638;9.216;2023-03-21T15:30:37;100885.69;;;10.49;100.00
32033;BME280;31720;52.638;9.216;2023-03-21T15:33:47;100886.59;;;10.48;100.00
32033;BME280;31720;52.638;9.216;2023-03-21T15:36:54;100875.81;;;10.54;100.00
32033;BME280;31720;52.638;9.216;2023-03-21T15:40:06;100878.34;;;10.56;100.00
32033;BME280;31720;52.638;9.216;2023-03-21T15:43:14;100869.28;;;10.61;100.00
32033;BME280;31720;52.638;9.216;2023-03-21T15:46:17;100870.31;;;10.59;100.00
32033;BME280;31720;52.638;9.216;2023-03-21T15:49:33;100865.06;;;10.59;100.00
32033;BME280;31720;52.638;9.216;2023-03-21T15:52:35;100875.81;;;10.54;100.00
32033;BME280;31720;52.638;9.216;2023-03-21T15:55:42;100863.81;;;10.49;100.00
32033;BME280;31720;52.638;9.216;2023-03-21T15:58:51;100858.25;;;10.55;100.00
32033;BME280;31720;52.638;9.216;2023-03-21T16:01:52;100853.84;;;10.55;100.00
32033;BME280;31720;52.638;9.216;2023-03-21T16:04:56;100852.16;;;10.54;100.00
32033;BME280;31720;52.638;9.216;2023-03-21T16:08:02;100859.09;;;10.55;100.00
32033;BME280;31720;52.638;9.216;2023-03-21T16:11:06;100863.75;;;10.50;100.00
32033;BME280;31720;52.638;9.216;2023-03-21T16:14:09;100861.81;;;10.54;100.00